createdAt,value
2019-03-04T00:00:26.329Z,80.90
2019-03-04T00:02:55.150Z,80.90
2019-03-04T00:05:24.027Z,80.90
2019-03-04T00:07:52.853Z,81.60
2019-03-04T00:10:21.719Z,80.90
2019-03-04T00:12:50.551Z,80.90
2019-03-04T00:15:20.423Z,80.90
2019-03-04T00:17:49.295Z,81.00
2019-03-04T00:20:18.119Z,81.10
2019-03-04T00:22:46.975Z,81.00
2019-03-04T00:25:15.839Z,81.10
2019-03-04T00:27:44.663Z,81.20
2019-03-04T00:30:13.541Z,81.30
2019-03-04T00:32:42.408Z,81.30
2019-03-04T00:35:11.231Z,81.40
2019-03-04T00:37:40.108Z,81.60
2019-03-04T00:40:13.173Z,81.70
2019-03-04T00:42:42.042Z,81.70
2019-03-04T00:45:13.179Z,81.80
2019-03-04T00:47:42.006Z,81.80
2019-03-04T00:50:16.526Z,81.80
2019-03-04T00:52:45.399Z,81.80
2019-03-04T00:55:14.315Z,81.70
2019-03-04T00:57:43.179Z,81.50
2019-03-04T01:00:16.692Z,81.60
2019-03-04T01:02:45.514Z,82.10
2019-03-04T01:05:14.675Z,81.60
2019-03-04T01:07:43.604Z,81.70
2019-03-04T01:10:14.435Z,81.60
2019-03-04T01:12:43.308Z,81.80
2019-03-04T01:15:16.342Z,81.70
2019-03-04T01:17:45.171Z,81.80
2019-03-04T01:20:18.471Z,81.70
2019-03-04T01:22:47.327Z,81.70
2019-03-04T01:25:18.532Z,81.60
2019-03-04T01:27:47.699Z,81.50
2019-03-04T01:30:24.259Z,81.40
2019-03-04T01:32:53.724Z,81.50
2019-03-04T01:35:22.592Z,81.30
2019-03-04T01:37:51.414Z,81.20
2019-03-04T01:40:24.172Z,81.30
2019-03-04T01:42:53.037Z,81.20
2019-03-04T01:45:21.872Z,81.30
2019-03-04T01:47:50.739Z,81.30
2019-03-04T01:50:19.904Z,81.30
2019-03-04T01:52:48.734Z,81.30
2019-03-04T01:55:18.797Z,81.30
2019-03-04T01:57:47.668Z,81.30
2019-03-04T02:00:18.868Z,81.40
2019-03-04T02:02:47.838Z,81.40
2019-03-04T02:05:17.200Z,81.30
2019-03-04T02:07:46.123Z,81.50
2019-03-04T02:10:19.285Z,81.30
2019-03-04T02:12:49.058Z,81.20
2019-03-04T02:15:21.307Z,81.20
2019-03-04T02:17:51.628Z,81.10
2019-03-04T02:20:20.496Z,81.00
2019-03-04T02:22:49.319Z,80.70
2019-03-04T02:25:42.357Z,80.50
2019-03-04T02:28:11.224Z,80.50
2019-03-04T02:30:40.055Z,80.30
2019-03-04T02:33:08.937Z,80.10
2019-03-04T02:35:37.806Z,80.20
2019-03-04T02:38:06.633Z,80.10
2019-03-04T02:40:35.500Z,80.00
2019-03-04T02:43:04.365Z,80.00
2019-03-04T02:45:33.201Z,79.80
2019-03-04T02:48:02.065Z,79.80
2019-03-04T02:50:30.938Z,79.80
2019-03-04T02:52:59.759Z,79.60
2019-03-04T02:55:28.627Z,79.50
2019-03-04T02:57:57.487Z,79.40
2019-03-04T03:00:26.320Z,79.20
2019-03-04T03:02:55.189Z,79.10
2019-03-04T03:05:24.056Z,79.00
2019-03-04T03:07:52.871Z,78.90
2019-03-04T03:10:21.741Z,78.80
2019-03-04T03:12:50.610Z,78.80
2019-03-04T03:15:21.018Z,78.80
2019-03-04T03:17:49.887Z,78.70
2019-03-04T03:20:18.756Z,78.80
2019-03-04T03:22:47.590Z,78.60
2019-03-04T03:25:16.849Z,78.70
2019-03-04T03:27:45.716Z,78.80
2019-03-04T03:30:19.751Z,78.70
2019-03-04T03:32:48.629Z,78.80
2019-03-04T03:35:17.507Z,78.80
2019-03-04T03:37:46.376Z,79.00
2019-03-04T03:40:20.213Z,79.00
2019-03-04T03:42:49.067Z,78.90
2019-03-04T03:45:19.144Z,78.90
2019-03-04T03:47:47.957Z,79.00
2019-03-04T03:50:17.324Z,79.00
2019-03-04T03:52:46.570Z,79.10
2019-03-04T03:55:16.698Z,79.00
2019-03-04T03:57:45.560Z,79.50
2019-03-04T04:00:24.897Z,78.80
2019-03-04T04:02:53.720Z,78.70
2019-03-04T04:05:22.593Z,78.70
2019-03-04T04:07:51.429Z,78.60
2019-03-04T04:10:21.418Z,78.60
2019-03-04T04:12:50.413Z,78.60
2019-03-04T04:15:20.388Z,79.00
2019-03-04T04:17:49.433Z,79.40
2019-03-04T04:20:18.279Z,79.80
2019-03-04T04:22:48.106Z,80.30
2019-03-04T04:25:17.171Z,80.50
2019-03-04T04:27:46.008Z,80.60
2019-03-04T04:30:18.519Z,80.80
2019-03-04T04:32:47.349Z,81.00
2019-03-04T04:35:16.217Z,81.00
2019-03-04T04:37:45.052Z,81.10
2019-03-04T04:40:14.613Z,81.30
2019-03-04T04:42:44.139Z,81.70
2019-03-04T04:45:13.720Z,82.00
2019-03-04T04:47:43.782Z,82.30
2019-03-04T04:50:30.731Z,82.50
2019-03-04T04:52:59.599Z,82.70
2019-03-04T04:55:28.430Z,82.70
2019-03-04T04:57:57.395Z,82.90
2019-03-04T05:00:26.260Z,82.70
2019-03-04T05:02:55.083Z,82.70
2019-03-04T05:05:23.959Z,82.80
2019-03-04T05:07:52.815Z,82.70
2019-03-04T05:10:25.053Z,82.80
2019-03-04T05:12:53.914Z,82.80
2019-03-04T05:15:23.955Z,83.10
2019-03-04T05:17:52.791Z,83.10
2019-03-04T05:20:24.591Z,83.10
2019-03-04T05:22:53.460Z,83.20
2019-03-04T05:25:22.284Z,83.10
2019-03-04T05:27:51.156Z,83.10
2019-03-04T05:30:21.889Z,83.00
2019-03-04T05:32:50.707Z,82.70
2019-03-04T05:35:19.771Z,82.60
2019-03-04T05:37:48.647Z,82.50
2019-03-04T05:40:21.324Z,82.20
2019-03-04T05:42:50.184Z,82.20
2019-03-04T05:45:20.039Z,82.20
2019-03-04T05:47:48.935Z,82.10
2019-03-04T05:50:19.910Z,82.00
2019-03-04T05:52:48.788Z,81.90
2019-03-04T05:55:17.610Z,81.80
2019-03-04T05:57:46.479Z,81.90
2019-03-04T06:00:21.420Z,82.10
2019-03-04T06:02:51.792Z,82.50
2019-03-04T06:05:20.673Z,82.90
2019-03-04T06:07:54.093Z,83.40
2019-03-04T06:10:22.960Z,83.80
2019-03-04T06:12:51.783Z,84.30
2019-03-04T06:15:22.138Z,84.90
2019-03-04T06:17:51.011Z,85.20
2019-03-04T06:20:20.539Z,85.60
2019-03-04T06:22:49.408Z,85.90
2019-03-04T06:25:20.784Z,86.00
2019-03-04T06:27:49.602Z,86.00
2019-03-04T06:30:23.531Z,86.00
2019-03-04T06:32:52.371Z,86.30
2019-03-04T06:35:21.204Z,86.30
2019-03-04T06:37:50.069Z,86.50
2019-03-04T06:40:20.236Z,86.40
2019-03-04T06:42:49.072Z,86.40
2019-03-04T06:45:20.139Z,86.00
2019-03-04T06:47:49.011Z,85.60
2019-03-04T06:50:46.569Z,84.80
2019-03-04T06:53:35.884Z,84.10
2019-03-04T06:56:10.456Z,83.00
2019-03-04T06:58:42.265Z,81.80
2019-03-04T07:01:13.844Z,80.50
2019-03-04T07:03:42.718Z,79.50
2019-03-04T07:06:11.543Z,78.30
2019-03-04T07:08:43.353Z,77.20
2019-03-04T07:11:12.229Z,76.60
2019-03-04T07:13:41.063Z,75.70
2019-03-04T07:16:09.920Z,74.90
2019-03-04T07:18:38.796Z,74.00
2019-03-04T07:21:07.621Z,73.20
2019-03-04T07:23:36.486Z,72.30
2019-03-04T07:26:05.350Z,71.50
2019-03-04T07:28:34.189Z,70.80
2019-03-04T07:31:03.052Z,70.10
2019-03-04T07:33:31.924Z,69.30
2019-03-04T07:36:00.748Z,68.70
2019-03-04T07:38:44.231Z,67.60
2019-03-04T07:41:13.198Z,67.10
2019-03-04T07:43:42.034Z,66.40
2019-03-04T07:46:10.897Z,65.60
2019-03-04T07:48:39.768Z,65.10
2019-03-04T07:51:18.836Z,64.30
2019-03-04T07:53:47.706Z,63.60
2019-03-04T07:56:16.532Z,63.10
2019-03-04T07:58:45.403Z,61.60
2019-03-04T08:01:14.273Z,61.30
2019-03-04T08:03:43.106Z,61.20
2019-03-04T08:06:12.279Z,60.90
2019-03-04T08:08:43.220Z,60.80
2019-03-04T08:11:31.575Z,60.40
2019-03-04T08:14:14.077Z,60.30
2019-03-04T08:16:42.965Z,60.10
2019-03-04T08:19:11.826Z,59.90
2019-03-04T08:21:40.652Z,59.70
2019-03-04T08:24:09.518Z,59.50
2019-03-04T08:26:38.393Z,59.10
2019-03-04T08:29:07.728Z,58.90
2019-03-04T08:31:36.606Z,58.50
2019-03-04T08:34:05.479Z,58.30
2019-03-04T08:36:34.316Z,57.90
2019-03-04T08:39:03.385Z,58.50
2019-03-04T08:41:32.257Z,57.60
2019-03-04T08:44:01.087Z,57.70
2019-03-04T08:46:29.951Z,57.80
2019-03-04T08:48:58.819Z,57.60
2019-03-04T08:51:27.649Z,57.40
2019-03-04T08:53:56.516Z,56.80
2019-03-04T08:56:25.384Z,56.50
2019-03-04T08:58:54.220Z,56.30
2019-03-04T09:01:23.092Z,56.20
2019-03-04T09:04:04.308Z,55.90
2019-03-04T09:06:33.341Z,55.60
2019-03-04T09:09:02.214Z,56.20
2019-03-04T09:11:31.041Z,55.50
2019-03-04T09:13:59.914Z,55.50
2019-03-04T09:16:28.792Z,55.50
2019-03-04T09:18:57.621Z,55.50
2019-03-04T09:21:26.505Z,55.50
2019-03-04T09:23:55.375Z,55.40
2019-03-04T09:26:24.225Z,55.40
2019-03-04T09:28:53.083Z,55.50
2019-03-04T09:31:21.965Z,55.80
2019-03-04T09:33:50.792Z,56.20
2019-03-04T09:36:19.660Z,57.00
2019-03-04T09:38:48.536Z,57.70
2019-03-04T09:41:17.368Z,58.20
2019-03-04T09:43:46.252Z,59.90
2019-03-04T09:46:15.234Z,62.50
2019-03-04T09:48:44.079Z,63.80
2019-03-04T09:51:12.959Z,64.90
2019-03-04T09:53:43.106Z,65.10
2019-03-04T09:56:12.079Z,64.50
2019-03-04T09:58:40.964Z,64.20
2019-03-04T10:01:15.548Z,63.50
2019-03-04T10:03:55.767Z,63.20
2019-03-04T10:06:39.244Z,61.50
2019-03-04T10:09:31.988Z,60.20
2019-03-04T10:12:03.789Z,58.10
2019-03-04T10:14:52.307Z,57.00
2019-03-04T10:17:40.515Z,56.70
2019-03-04T10:20:45.963Z,55.90
2019-03-04T10:23:32.727Z,55.40
2019-03-04T10:26:23.174Z,55.10
2019-03-04T10:29:02.287Z,54.50
2019-03-04T10:31:58.258Z,54.10
2019-03-04T10:34:46.498Z,53.50
2019-03-04T10:37:27.092Z,53.20
2019-03-04T10:40:19.967Z,52.90
2019-03-04T10:42:54.697Z,52.60
2019-03-04T10:45:42.995Z,52.20
2019-03-04T10:48:11.874Z,51.20
2019-03-04T10:50:40.755Z,50.80
2019-03-04T10:53:09.572Z,50.50
2019-03-04T10:55:42.075Z,50.20
2019-03-04T10:58:08.989Z,49.80
2019-03-04T11:00:37.840Z,50.00
2019-03-04T11:03:06.726Z,50.40
2019-03-04T11:05:35.593Z,51.10
2019-03-04T11:08:04.437Z,51.50
2019-03-04T11:10:33.311Z,51.70
2019-03-04T11:13:02.191Z,52.00
2019-03-04T11:15:31.439Z,52.20
2019-03-04T11:18:00.623Z,52.30
2019-03-04T11:20:29.498Z,52.60
2019-03-04T11:22:58.348Z,53.00
2019-03-04T11:25:27.825Z,53.00
2019-03-04T11:27:56.719Z,53.40
2019-03-04T11:30:27.151Z,53.60
2019-03-04T11:32:56.014Z,53.70
2019-03-04T11:35:24.878Z,53.70
2019-03-04T11:37:53.756Z,53.90
2019-03-04T11:40:27.315Z,54.00
2019-03-04T11:42:56.189Z,53.90
2019-03-04T11:45:25.036Z,53.60
2019-03-04T11:47:53.924Z,53.60
2019-03-04T11:50:22.797Z,53.50
2019-03-04T11:52:51.628Z,53.60
2019-03-04T11:55:26.730Z,53.90
2019-03-04T11:57:55.561Z,53.70
2019-03-04T12:00:36.503Z,53.80
2019-03-04T12:03:05.352Z,53.80
2019-03-04T12:05:34.225Z,54.00
2019-03-04T12:08:03.057Z,54.30
2019-03-04T12:10:31.979Z,54.40
2019-03-04T12:13:00.788Z,54.20
2019-03-04T12:15:29.677Z,54.30
2019-03-04T12:17:58.540Z,54.40
2019-03-04T12:20:27.382Z,54.40
2019-03-04T12:22:56.289Z,54.40
2019-03-04T12:25:25.192Z,54.40
2019-03-04T12:27:54.024Z,54.50
2019-03-04T12:30:27.027Z,54.40
2019-03-04T12:32:56.224Z,54.30
2019-03-04T12:35:25.116Z,54.20
2019-03-04T12:37:54.108Z,54.00
2019-03-04T12:40:23.899Z,53.80
2019-03-04T12:42:52.916Z,54.00
2019-03-04T12:45:33.736Z,54.20
2019-03-04T12:47:54.285Z,54.00
2019-03-04T12:50:25.440Z,54.30
2019-03-04T12:52:55.037Z,54.30
2019-03-04T12:55:23.925Z,54.40
2019-03-04T12:57:52.922Z,54.50
2019-03-04T13:00:24.048Z,54.80
2019-03-04T13:02:57.491Z,54.90
2019-03-04T13:05:23.556Z,55.10
2019-03-04T13:07:52.429Z,55.10
2019-03-04T13:10:21.455Z,55.30
2019-03-04T13:12:50.331Z,55.40
2019-03-04T13:15:28.496Z,55.40
2019-03-04T13:17:57.747Z,55.30
2019-03-04T13:20:38.927Z,55.40
2019-03-04T13:23:50.545Z,55.60
2019-03-04T13:26:19.433Z,55.90
2019-03-04T13:28:48.308Z,56.00
2019-03-04T13:31:17.193Z,55.90
2019-03-04T13:33:46.084Z,55.70
2019-03-04T13:36:14.997Z,55.40
2019-03-04T13:38:44.512Z,55.40
2019-03-04T13:41:13.601Z,55.00
2019-03-04T13:43:42.491Z,54.90
2019-03-04T13:46:11.467Z,55.00
2019-03-04T13:48:40.478Z,55.00
2019-03-04T13:51:09.470Z,54.70
2019-03-04T13:53:38.440Z,54.70
2019-03-04T13:56:07.356Z,54.30
2019-03-04T13:58:36.169Z,54.20
2019-03-04T14:01:06.834Z,54.20
2019-03-04T14:03:35.700Z,54.00
2019-03-04T14:06:04.541Z,54.10
2019-03-04T14:08:33.407Z,53.80
2019-03-04T14:11:02.400Z,53.70
2019-03-04T14:13:31.259Z,53.80
2019-03-04T14:16:00.160Z,54.00
2019-03-04T14:18:29.526Z,54.20
2019-03-04T14:20:58.379Z,54.00
2019-03-04T14:23:27.253Z,53.90
2019-03-04T14:25:56.126Z,54.00
2019-03-04T14:28:25.456Z,54.20
2019-03-04T14:30:54.340Z,54.00
2019-03-04T14:33:23.286Z,54.00
2019-03-04T14:35:52.182Z,54.20
2019-03-04T14:38:21.274Z,54.30
2019-03-04T14:40:50.163Z,54.30
2019-03-04T14:43:19.054Z,54.40
2019-03-04T14:45:48.049Z,54.30
2019-03-04T14:48:18.103Z,54.40
2019-03-04T14:53:51.499Z,54.70
2019-03-04T14:56:22.632Z,54.40
2019-03-04T14:59:09.195Z,54.00
2019-03-04T15:01:21.537Z,53.70
2019-03-04T15:03:51.468Z,53.60
2019-03-04T15:06:20.349Z,53.60
2019-03-04T15:08:49.218Z,53.50
2019-03-04T15:11:24.579Z,53.60
2019-03-04T15:13:53.468Z,53.90
2019-03-04T15:16:22.338Z,55.30
2019-03-04T15:18:51.230Z,56.40
2019-03-04T15:21:20.119Z,57.00
2019-03-04T15:23:49.134Z,57.50
2019-03-04T15:26:18.110Z,57.50
2019-03-04T15:28:47.019Z,57.50
2019-03-04T15:31:16.115Z,57.90
2019-03-04T15:33:45.110Z,57.90
2019-03-04T15:36:14.103Z,57.70
2019-03-04T15:38:42.994Z,58.00
2019-03-04T15:41:11.885Z,58.20
2019-03-04T15:43:40.776Z,58.30
2019-03-04T15:46:09.668Z,58.40
2019-03-04T15:48:53.919Z,58.40
2019-03-04T15:51:22.809Z,58.30
2019-03-04T15:53:51.908Z,58.40
2019-03-04T15:56:20.818Z,58.50
2019-03-04T15:58:51.706Z,58.60
2019-03-04T16:01:20.320Z,58.60
2019-03-04T16:03:49.212Z,58.70
2019-03-04T16:06:18.102Z,58.80
2019-03-04T16:09:12.594Z,58.70
2019-03-04T16:11:41.588Z,58.80
2019-03-04T16:14:10.581Z,58.70
2019-03-04T16:16:48.896Z,58.90
2019-03-04T16:19:17.785Z,59.10
2019-03-04T16:21:46.595Z,59.10
2019-03-04T16:24:15.474Z,59.10
2019-03-04T16:26:44.369Z,59.10
2019-03-04T16:29:13.259Z,59.00
2019-03-04T16:31:42.158Z,58.70
2019-03-04T16:34:11.046Z,58.40
2019-03-04T16:36:40.446Z,58.00
2019-03-04T16:39:09.544Z,57.80
2019-03-04T16:41:38.741Z,57.40
2019-03-04T16:44:07.633Z,56.80
2019-03-04T16:46:36.522Z,62.60
2019-03-04T16:49:05.724Z,68.70
2019-03-04T16:51:34.715Z,72.30
2019-03-04T16:54:03.609Z,75.50
2019-03-04T16:56:32.452Z,78.00
2019-03-04T16:59:01.276Z,80.00
2019-03-04T17:01:31.119Z,81.70
2019-03-04T17:03:59.991Z,83.00
2019-03-04T17:06:28.823Z,84.20
2019-03-04T17:08:57.653Z,85.20
2019-03-04T17:11:26.516Z,86.30
2019-03-04T17:13:55.341Z,86.90
2019-03-04T17:16:24.203Z,87.60
2019-03-04T17:18:53.067Z,88.00
2019-03-04T17:21:21.894Z,88.40
2019-03-04T17:23:50.762Z,89.00
2019-03-04T17:26:19.627Z,89.40
2019-03-04T17:28:48.448Z,89.70
2019-03-04T17:31:17.311Z,89.90
2019-03-04T17:33:46.178Z,90.00
2019-03-04T17:36:15.003Z,90.10
2019-03-04T17:38:43.879Z,90.30
2019-03-04T17:41:12.727Z,90.30
2019-03-04T17:43:41.555Z,90.30
2019-03-04T17:46:10.423Z,90.30
2019-03-04T17:48:39.283Z,90.40
2019-03-04T17:51:08.107Z,90.40
2019-03-04T17:53:36.971Z,90.40
2019-03-04T17:56:05.843Z,90.50
2019-03-04T17:58:34.667Z,90.60
2019-03-04T18:01:03.540Z,90.70
2019-03-04T18:03:32.585Z,90.70
2019-03-04T18:06:01.451Z,91.10
2019-03-04T18:08:30.254Z,90.80
2019-03-04T18:10:59.130Z,90.90
2019-03-04T18:13:27.955Z,90.80
2019-03-04T18:15:56.811Z,90.90
2019-03-04T18:18:25.675Z,90.80
2019-03-04T18:20:54.504Z,90.80
2019-03-04T18:23:23.392Z,90.80
2019-03-04T18:26:07.276Z,90.80
2019-03-04T18:29:12.402Z,90.70
2019-03-04T18:31:56.044Z,90.70
2019-03-04T18:34:47.556Z,90.70
2019-03-04T18:37:35.955Z,90.70
2019-03-04T18:40:13.541Z,90.80
2019-03-04T18:42:57.154Z,90.80
2019-03-04T18:45:38.546Z,90.90
2019-03-04T18:48:28.463Z,90.80
2019-03-04T18:50:57.664Z,90.70
2019-03-04T18:53:26.546Z,90.70
2019-03-04T18:55:55.371Z,90.70
2019-03-04T18:58:24.272Z,90.70
2019-03-04T19:00:53.133Z,90.60
2019-03-04T19:03:21.964Z,90.60
2019-03-04T19:05:50.818Z,90.60
2019-03-04T19:08:19.688Z,90.50
2019-03-04T19:10:48.516Z,90.40
2019-03-04T19:13:17.374Z,90.30
2019-03-04T19:15:47.100Z,90.20
2019-03-04T19:18:15.933Z,90.10
2019-03-04T19:20:44.796Z,89.90
2019-03-04T19:23:13.660Z,89.60
2019-03-04T19:25:42.683Z,89.00
2019-03-04T19:28:11.558Z,88.80
2019-03-04T19:30:40.446Z,88.40
2019-03-04T19:33:09.277Z,88.10
2019-03-04T19:35:38.134Z,87.90
2019-03-04T19:38:07.006Z,87.70
2019-03-04T19:40:35.832Z,87.60
2019-03-04T19:43:04.699Z,87.60
2019-03-04T19:45:33.567Z,87.40
2019-03-04T19:48:02.396Z,88.00
2019-03-04T19:50:31.459Z,87.20
2019-03-04T19:53:00.327Z,87.20
2019-03-04T19:55:29.152Z,87.10
2019-03-04T19:57:58.934Z,87.10
2019-03-04T20:00:32.403Z,87.00
2019-03-04T20:03:01.227Z,86.90
2019-03-04T20:05:32.297Z,86.90
2019-03-04T20:08:01.552Z,86.80
2019-03-04T20:10:31.582Z,86.60
2019-03-04T20:13:00.463Z,86.60
2019-03-04T20:15:34.444Z,86.60
2019-03-04T20:18:03.320Z,86.80
2019-03-04T20:20:32.287Z,86.90
2019-03-04T20:23:01.612Z,87.10
2019-03-04T20:25:30.579Z,87.20
2019-03-04T20:27:59.447Z,87.40
2019-03-04T20:30:28.277Z,87.50
2019-03-04T20:32:57.140Z,87.50
2019-03-04T20:35:25.969Z,87.50
2019-03-04T20:38:05.247Z,87.50
2019-03-04T20:40:34.130Z,87.40
2019-03-04T20:43:03.048Z,87.50
2019-03-04T20:45:31.914Z,87.70
2019-03-04T20:48:00.797Z,87.70
2019-03-04T20:50:29.612Z,87.80
2019-03-04T20:52:58.481Z,87.90
2019-03-04T20:55:27.362Z,88.00
2019-03-04T20:57:56.225Z,88.20
2019-03-04T21:00:36.169Z,88.20
2019-03-04T21:03:08.948Z,88.40
2019-03-04T21:05:44.047Z,88.70
2019-03-04T21:08:12.920Z,88.80
2019-03-04T21:10:41.742Z,88.90
2019-03-04T21:13:12.286Z,89.10
2019-03-04T21:15:50.115Z,89.20
2019-03-04T21:18:18.983Z,88.80
2019-03-04T21:20:47.839Z,89.10
2019-03-04T21:23:16.768Z,89.20
2019-03-04T21:25:48.571Z,89.20
2019-03-04T21:28:26.391Z,89.20
2019-03-04T21:31:10.035Z,89.40
2019-03-04T21:33:56.851Z,89.20
2019-03-04T21:36:37.495Z,89.30
2019-03-04T21:39:08.163Z,89.30
2019-03-04T21:41:39.969Z,89.30
2019-03-04T21:44:31.132Z,89.30
2019-03-04T21:47:08.914Z,89.40
2019-03-04T21:49:40.340Z,89.40
2019-03-04T21:52:19.937Z,89.30
2019-03-04T21:54:42.628Z,89.50
2019-03-04T21:57:20.168Z,89.50
2019-03-04T21:59:49.039Z,89.60
2019-03-04T22:02:29.919Z,89.60
2019-03-04T22:05:01.388Z,89.70
2019-03-04T22:07:30.294Z,89.80
2019-03-04T22:09:59.500Z,89.80
2019-03-04T22:12:29.534Z,90.00
2019-03-04T22:14:58.460Z,89.90
2019-03-04T22:17:27.381Z,90.00
2019-03-04T22:19:56.202Z,90.00
2019-03-04T22:22:25.061Z,90.00
2019-03-04T22:24:53.923Z,90.10
2019-03-04T22:27:22.849Z,90.10
2019-03-04T22:29:51.739Z,90.20
2019-03-04T22:32:20.635Z,90.60
2019-03-04T22:34:49.547Z,90.30
2019-03-04T22:37:18.429Z,90.30
2019-03-04T22:39:47.304Z,90.40
2019-03-04T22:42:16.195Z,90.40
2019-03-04T22:44:45.100Z,90.50
2019-03-04T22:47:15.431Z,90.50
2019-03-04T22:49:44.302Z,90.60
2019-03-04T22:52:13.193Z,90.60
2019-03-04T22:54:42.087Z,90.60
2019-03-04T22:57:10.976Z,90.70
2019-03-04T22:59:39.868Z,90.70
2019-03-04T23:02:09.031Z,90.80
2019-03-04T23:04:38.239Z,90.80
2019-03-04T23:07:08.666Z,90.90
2019-03-04T23:09:40.597Z,90.90
2019-03-04T23:12:27.469Z,90.90
2019-03-04T23:14:56.459Z,90.90
2019-03-04T23:17:25.351Z,90.90
2019-03-04T23:19:54.243Z,90.90
2019-03-04T23:22:23.135Z,90.90
2019-03-04T23:24:52.229Z,90.90
2019-03-04T23:27:21.121Z,90.90
2019-03-04T23:29:50.012Z,90.90
2019-03-04T23:32:18.903Z,91.00
2019-03-04T23:34:47.794Z,91.00
2019-03-04T23:37:16.685Z,91.00
2019-03-04T23:39:45.576Z,91.00
2019-03-04T23:42:14.467Z,91.10
2019-03-04T23:44:43.359Z,91.20
2019-03-04T23:47:12.250Z,91.30
2019-03-04T23:49:41.144Z,91.50
2019-03-04T23:52:10.033Z,91.70
2019-03-04T23:54:38.957Z,91.90
2019-03-04T23:57:07.917Z,92.00
2019-03-04T23:59:36.809Z,92.10
